METAR Formatted Surface Weather Observation
Issued by NWS

Home | Current Version | Previous Version | Text Only | Print | Product List | Glossary On
Versions: 1 2 3 4 5 6 7 8 9 10 11 12 13
000
SAUS46 KSTO 261758 COR
MTRBLU
METAR KBLU 261752Z AUTO 17008KT 10SM CLR 23/06 A3028 RMK AO2 SLP155
T02280056 10228 20178 51004 TSNO



USA.gov is the U.S. government's official web portal to all federal, state and local government web resources and services.